Terminal Aerodrome Forecast
Issued by NWS Albany, NY

Home | Current Version | Previous Version | Text Only | Print | Product List | Glossary On
Versions: 1 2 3 4 5 6 7 8 9 10 11 12 13 14 15 16 17 18 19 20 21 22 23 24
000
FTUS41 KALY 061720
TAFALB
TAF
KALB 061720Z 0618/0718 34005KT 6SM -RA BKN050 OVC100
     FM062000 05006KT 5SM -RA BR BKN025 OVC035
     FM070400 VRB03KT P6SM VCSH BKN025 OVC035
     FM071400 VRB05KT P6SM VCSH SCT025 BKN040=

USA.gov is the U.S. government's official web portal to all federal, state and local government web resources and services.